sensor_id;sensor_type;location;lat;lon;timestamp;P1;durP1;ratioP1;P2;durP2;ratioP2
64018;SDS011;66942;52.138;5.216;2024-03-23T00:54:42;48.5;;;19.91;;
64018;SDS011;66942;52.138;5.216;2024-03-23T00:56:19;39.81;;;18.91;;
64018;SDS011;66942;52.138;5.216;2024-03-23T00:59:31;47.7;;;17.61;;
64018;SDS011;66942;52.138;5.216;2024-03-23T01:01:07;50.4;;;18.61;;
64018;SDS011;66942;52.138;5.216;2024-03-23T01:02:43;40.31;;;17.8;;
64018;SDS011;66942;52.138;5.216;2024-03-23T01:04:19;43.1;;;19.0;;
64018;SDS011;66942;52.138;5.216;2024-03-23T01:07:35;46.6;;;18.8;;
64018;SDS011;66942;52.138;5.216;2024-03-23T01:09:11;40.1;;;16.9;;
64018;SDS011;66942;52.138;5.216;2024-03-23T01:10:53;43.1;;;18.7;;
64018;SDS011;66942;52.138;5.216;2024-03-23T01:14:06;46.6;;;17.5;;
64018;SDS011;66942;52.138;5.216;2024-03-23T01:15:47;48.2;;;17.41;;
64018;SDS011;66942;52.138;5.216;2024-03-23T01:17:24;45.1;;;17.5;;
64018;SDS011;66942;52.138;5.216;2024-03-23T01:19:00;45.7;;;18.11;;
64018;SDS011;66942;52.138;5.216;2024-03-23T01:22:12;29.6;;;13.7;;
64018;SDS011;66942;52.138;5.216;2024-03-23T01:23:48;45.8;;;16.8;;
64018;SDS011;66942;52.138;5.216;2024-03-23T01:25:24;37.9;;;14.2;;
64018;SDS011;66942;52.138;5.216;2024-03-23T01:28:37;38.1;;;15.0;;
64018;SDS011;66942;52.138;5.216;2024-03-23T01:30:13;41.8;;;15.8;;
64018;SDS011;66942;52.138;5.216;2024-03-23T01:31:49;47.8;;;16.0;;
64018;SDS011;66942;52.138;5.216;2024-03-23T01:35:01;30.6;;;12.8;;
64018;SDS011;66942;52.138;5.216;2024-03-23T01:36:37;35.71;;;13.4;;
64018;SDS011;66942;52.138;5.216;2024-03-23T01:38:13;39.0;;;13.6;;
64018;SDS011;66942;52.138;5.216;2024-03-23T01:39:49;40.31;;;13.2;;
64018;SDS011;66942;52.138;5.216;2024-03-23T01:43:03;40.81;;;13.6;;
64018;SDS011;66942;52.138;5.216;2024-03-23T01:44:41;38.31;;;14.9;;
64018;SDS011;66942;52.138;5.216;2024-03-23T01:46:17;42.1;;;14.6;;
64018;SDS011;66942;52.138;5.216;2024-03-23T01:49:29;34.71;;;12.3;;
64018;SDS011;66942;52.138;5.216;2024-03-23T01:51:06;42.4;;;14.9;;
64018;SDS011;66942;52.138;5.216;2024-03-23T01:52:42;36.9;;;13.9;;
64018;SDS011;66942;52.138;5.216;2024-03-23T01:55:54;31.9;;;13.0;;
64018;SDS011;66942;52.138;5.216;2024-03-23T01:57:31;28.7;;;11.5;;
64018;SDS011;66942;52.138;5.216;2024-03-23T01:59:07;24.4;;;11.4;;
64018;SDS011;66942;52.138;5.216;2024-03-23T02:00:44;31.7;;;12.6;;
64018;SDS011;66942;52.138;5.216;2024-03-23T02:03:56;39.21;;;14.1;;
64018;SDS011;66942;52.138;5.216;2024-03-23T02:05:33;38.0;;;13.9;;
64018;SDS011;66942;52.138;5.216;2024-03-23T02:07:09;26.9;;;10.5;;
64018;SDS011;66942;52.138;5.216;2024-03-23T02:10:21;31.5;;;11.6;;
64018;SDS011;66942;52.138;5.216;2024-03-23T02:11:57;36.31;;;13.5;;
64018;SDS011;66942;52.138;5.216;2024-03-23T02:13:33;35.81;;;14.0;;
64018;SDS011;66942;52.138;5.216;2024-03-23T02:16:46;30.2;;;12.1;;
64018;SDS011;66942;52.138;5.216;2024-03-23T02:18:22;33.1;;;12.0;;
64018;SDS011;66942;52.138;5.216;2024-03-23T02:19:58;32.21;;;12.8;;
64018;SDS011;66942;52.138;5.216;2024-03-23T02:23:13;39.9;;;13.8;;
64018;SDS011;66942;52.138;5.216;2024-03-23T02:24:49;22.9;;;10.4;;
64018;SDS011;66942;52.138;5.216;2024-03-23T02:26:25;32.6;;;12.3;;
64018;SDS011;66942;52.138;5.216;2024-03-23T02:28:01;39.71;;;14.6;;
64018;SDS011;66942;52.138;5.216;2024-03-23T02:31:13;33.21;;;12.1;;
64018;SDS011;66942;52.138;5.216;2024-03-23T02:32:49;31.3;;;11.5;;
64018;SDS011;66942;52.138;5.216;2024-03-23T02:34:26;30.3;;;12.6;;
64018;SDS011;66942;52.138;5.216;2024-03-23T02:37:38;34.9;;;11.6;;
64018;SDS011;66942;52.138;5.216;2024-03-23T02:39:14;19.91;;;9.1;;
64018;SDS011;66942;52.138;5.216;2024-03-23T02:40:50;36.6;;;13.6;;
64018;SDS011;66942;52.138;5.216;2024-03-23T02:44:02;23.0;;;10.3;;
64018;SDS011;66942;52.138;5.216;2024-03-23T02:45:38;33.4;;;12.8;;
64018;SDS011;66942;52.138;5.216;2024-03-23T02:47:14;40.0;;;13.0;;
64018;SDS011;66942;52.138;5.216;2024-03-23T02:48:50;35.0;;;12.9;;
64018;SDS011;66942;52.138;5.216;2024-03-23T02:52:03;33.6;;;12.1;;
64018;SDS011;66942;52.138;5.216;2024-03-23T02:53:39;29.8;;;11.3;;
64018;SDS011;66942;52.138;5.216;2024-03-23T02:55:15;34.4;;;12.4;;
64018;SDS011;66942;52.138;5.216;2024-03-23T02:58:27;30.3;;;12.4;;
64018;SDS011;66942;52.138;5.216;2024-03-23T03:00:04;29.5;;;10.7;;
64018;SDS011;66942;52.138;5.216;2024-03-23T03:01:40;38.9;;;13.0;;
64018;SDS011;66942;52.138;5.216;2024-03-23T03:04:52;42.4;;;13.3;;
64018;SDS011;66942;52.138;5.216;2024-03-23T03:06:30;32.9;;;10.7;;
64018;SDS011;66942;52.138;5.216;2024-03-23T03:08:07;33.71;;;11.7;;
64018;SDS011;66942;52.138;5.216;2024-03-23T03:11:19;30.9;;;10.9;;
64018;SDS011;66942;52.138;5.216;2024-03-23T03:12:55;34.71;;;11.6;;
64018;SDS011;66942;52.138;5.216;2024-03-23T03:14:31;23.5;;;9.71;;
64018;SDS011;66942;52.138;5.216;2024-03-23T03:16:08;29.4;;;10.21;;
64018;SDS011;66942;52.138;5.216;2024-03-23T03:19:20;30.9;;;10.21;;
64018;SDS011;66942;52.138;5.216;2024-03-23T03:20:56;33.71;;;11.2;;
64018;SDS011;66942;52.138;5.216;2024-03-23T03:22:33;31.5;;;9.81;;
64018;SDS011;66942;52.138;5.216;2024-03-23T03:25:45;30.0;;;10.8;;
64018;SDS011;66942;52.138;5.216;2024-03-23T03:27:21;26.4;;;9.81;;
64018;SDS011;66942;52.138;5.216;2024-03-23T03:28:57;31.5;;;9.6;;
64018;SDS011;66942;52.138;5.216;2024-03-23T03:32:09;28.8;;;9.9;;
64018;SDS011;66942;52.138;5.216;2024-03-23T03:33:45;31.0;;;9.81;;
64018;SDS011;66942;52.138;5.216;2024-03-23T03:35:21;30.5;;;10.0;;
64018;SDS011;66942;52.138;5.216;2024-03-23T03:36:58;26.9;;;9.21;;
64018;SDS011;66942;52.138;5.216;2024-03-23T03:40:10;30.5;;;9.81;;
64018;SDS011;66942;52.138;5.216;2024-03-23T03:41:48;29.7;;;9.5;;
64018;SDS011;66942;52.138;5.216;2024-03-23T03:43:24;22.5;;;8.0;;
64018;SDS011;66942;52.138;5.216;2024-03-23T03:46:36;26.6;;;9.21;;
64018;SDS011;66942;52.138;5.216;2024-03-23T03:48:12;29.5;;;9.81;;
64018;SDS011;66942;52.138;5.216;2024-03-23T03:49:48;29.4;;;8.4;;
64018;SDS011;66942;52.138;5.216;2024-03-23T03:53:00;23.3;;;8.5;;
64018;SDS011;66942;52.138;5.216;2024-03-23T03:54:36;18.3;;;7.2;;
64018;SDS011;66942;52.138;5.216;2024-03-23T03:56:13;23.7;;;8.71;;
64018;SDS011;66942;52.138;5.216;2024-03-23T03:59:25;20.0;;;7.5;;
64018;SDS011;66942;52.138;5.216;2024-03-23T04:01:02;23.4;;;8.2;;
64018;SDS011;66942;52.138;5.216;2024-03-23T04:02:38;28.1;;;9.1;;
64018;SDS011;66942;52.138;5.216;2024-03-23T04:04:14;24.2;;;8.4;;
64018;SDS011;66942;52.138;5.216;2024-03-23T04:07:27;19.11;;;6.5;;
64018;SDS011;66942;52.138;5.216;2024-03-23T04:09:03;23.2;;;7.9;;
64018;SDS011;66942;52.138;5.216;2024-03-23T04:10:39;16.7;;;6.9;;
64018;SDS011;66942;52.138;5.216;2024-03-23T04:13:52;20.0;;;7.4;;
64018;SDS011;66942;52.138;5.216;2024-03-23T04:15:28;25.3;;;8.9;;
64018;SDS011;66942;52.138;5.216;2024-03-23T04:17:04;25.3;;;8.31;;
64018;SDS011;66942;52.138;5.216;2024-03-23T04:20:16;27.2;;;8.9;;
64018;SDS011;66942;52.138;5.216;2024-03-23T04:21:52;25.2;;;7.8;;
64018;SDS011;66942;52.138;5.216;2024-03-23T04:23:28;26.8;;;9.0;;
64018;SDS011;66942;52.138;5.216;2024-03-23T04:25:05;24.7;;;7.9;;
64018;SDS011;66942;52.138;5.216;2024-03-23T04:28:18;21.4;;;7.8;;
64018;SDS011;66942;52.138;5.216;2024-03-23T04:29:55;19.5;;;7.6;;
64018;SDS011;66942;52.138;5.216;2024-03-23T04:31:31;25.2;;;8.6;;
64018;SDS011;66942;52.138;5.216;2024-03-23T04:34:43;20.6;;;8.31;;
64018;SDS011;66942;52.138;5.216;2024-03-23T04:36:20;25.5;;;9.4;;
64018;SDS011;66942;52.138;5.216;2024-03-23T04:37:56;23.7;;;8.6;;
64018;SDS011;66942;52.138;5.216;2024-03-23T04:41:08;25.0;;;8.9;;
64018;SDS011;66942;52.138;5.216;2024-03-23T04:42:44;24.1;;;9.21;;
64018;SDS011;66942;52.138;5.216;2024-03-23T04:44:20;23.9;;;8.2;;
64018;SDS011;66942;52.138;5.216;2024-03-23T04:47:33;14.6;;;6.5;;
64018;SDS011;66942;52.138;5.216;2024-03-23T04:49:09;22.6;;;8.81;;
64018;SDS011;66942;52.138;5.216;2024-03-23T04:50:45;21.9;;;8.5;;
64018;SDS011;66942;52.138;5.216;2024-03-23T04:52:21;15.0;;;7.0;;
64018;SDS011;66942;52.138;5.216;2024-03-23T04:55:33;18.61;;;8.2;;
64018;SDS011;66942;52.138;5.216;2024-03-23T04:57:09;24.4;;;8.81;;
64018;SDS011;66942;52.138;5.216;2024-03-23T04:58:45;23.7;;;8.6;;
64018;SDS011;66942;52.138;5.216;2024-03-23T05:01:56;19.11;;;8.4;;
64018;SDS011;66942;52.138;5.216;2024-03-23T05:03:33;24.1;;;8.4;;
64018;SDS011;66942;52.138;5.216;2024-03-23T05:05:09;19.7;;;8.1;;
64018;SDS011;66942;52.138;5.216;2024-03-23T05:08:21;20.9;;;7.3;;
64018;SDS011;66942;52.138;5.216;2024-03-23T05:09:57;22.5;;;7.4;;
64018;SDS011;66942;52.138;5.216;2024-03-23T05:11:33;18.41;;;6.8;;
64018;SDS011;66942;52.138;5.216;2024-03-23T05:14:45;20.2;;;6.9;;
64018;SDS011;66942;52.138;5.216;2024-03-23T05:16:21;20.7;;;6.8;;
64018;SDS011;66942;52.138;5.216;2024-03-23T05:17:57;16.5;;;6.6;;
64018;SDS011;66942;52.138;5.216;2024-03-23T05:19:33;12.7;;;5.11;;
64018;SDS011;66942;52.138;5.216;2024-03-23T05:22:46;16.3;;;7.1;;
64018;SDS011;66942;52.138;5.216;2024-03-23T05:24:22;16.2;;;5.9;;
64018;SDS011;66942;52.138;5.216;2024-03-23T05:25:58;20.11;;;6.4;;
64018;SDS011;66942;52.138;5.216;2024-03-23T05:29:10;21.3;;;6.8;;
64018;SDS011;66942;52.138;5.216;2024-03-23T05:30:49;16.0;;;5.3;;
64018;SDS011;66942;52.138;5.216;2024-03-23T05:32:26;17.91;;;6.1;;
64018;SDS011;66942;52.138;5.216;2024-03-23T05:35:38;13.4;;;4.5;;
64018;SDS011;66942;52.138;5.216;2024-03-23T05:37:15;19.7;;;6.1;;
64018;SDS011;66942;52.138;5.216;2024-03-23T05:38:51;13.3;;;4.7;;
64018;SDS011;66942;52.138;5.216;2024-03-23T05:40:27;16.61;;;5.9;;
64018;SDS011;66942;52.138;5.216;2024-03-23T05:43:39;17.61;;;5.9;;
64018;SDS011;66942;52.138;5.216;2024-03-23T05:45:15;16.9;;;5.7;;
64018;SDS011;66942;52.138;5.216;2024-03-23T05:46:51;17.8;;;5.2;;
64018;SDS011;66942;52.138;5.216;2024-03-23T05:50:04;19.2;;;5.4;;
64018;SDS011;66942;52.138;5.216;2024-03-23T05:51:40;12.0;;;4.2;;
64018;SDS011;66942;52.138;5.216;2024-03-23T05:53:17;17.61;;;4.7;;
64018;SDS011;66942;52.138;5.216;2024-03-23T05:56:30;18.8;;;5.4;;
64018;SDS011;66942;52.138;5.216;2024-03-23T05:58:06;15.1;;;4.5;;
64018;SDS011;66942;52.138;5.216;2024-03-23T05:59:42;13.0;;;3.9;;
64018;SDS011;66942;52.138;5.216;2024-03-23T06:01:18;19.5;;;5.2;;
64018;SDS011;66942;52.138;5.216;2024-03-23T06:04:30;19.41;;;5.4;;
64018;SDS011;66942;52.138;5.216;2024-03-23T06:06:06;17.0;;;4.8;;
64018;SDS011;66942;52.138;5.216;2024-03-23T06:07:42;16.5;;;4.5;;
64018;SDS011;66942;52.138;5.216;2024-03-23T06:10:54;12.6;;;4.41;;
64018;SDS011;66942;52.138;5.216;2024-03-23T06:12:31;14.2;;;3.9;;
64018;SDS011;66942;52.138;5.216;2024-03-23T06:14:07;19.3;;;4.7;;
64018;SDS011;66942;52.138;5.216;2024-03-23T06:17:19;15.6;;;4.5;;
64018;SDS011;66942;52.138;5.216;2024-03-23T06:18:55;13.1;;;4.3;;
64018;SDS011;66942;52.138;5.216;2024-03-23T06:20:31;16.5;;;4.5;;
64018;SDS011;66942;52.138;5.216;2024-03-23T06:23:44;12.8;;;4.3;;
64018;SDS011;66942;52.138;5.216;2024-03-23T06:25:20;15.7;;;4.61;;
64018;SDS011;66942;52.138;5.216;2024-03-23T06:26:57;11.4;;;4.0;;
64018;SDS011;66942;52.138;5.216;2024-03-23T06:28:33;12.2;;;4.2;;
64018;SDS011;66942;52.138;5.216;2024-03-23T06:31:51;15.0;;;4.3;;
64018;SDS011;66942;52.138;5.216;2024-03-23T06:33:29;16.5;;;4.1;;
64018;SDS011;66942;52.138;5.216;2024-03-23T06:35:05;14.4;;;4.5;;
64018;SDS011;66942;52.138;5.216;2024-03-23T06:38:18;10.21;;;4.1;;
64018;SDS011;66942;52.138;5.216;2024-03-23T06:39:54;13.1;;;4.61;;
64018;SDS011;66942;52.138;5.216;2024-03-23T06:41:30;13.9;;;4.5;;
64018;SDS011;66942;52.138;5.216;2024-03-23T06:44:43;17.0;;;4.91;;
64018;SDS011;66942;52.138;5.216;2024-03-23T06:46:19;12.4;;;4.5;;
64018;SDS011;66942;52.138;5.216;2024-03-23T06:47:55;17.61;;;4.61;;
64018;SDS011;66942;52.138;5.216;2024-03-23T06:49:31;10.8;;;4.2;;
64018;SDS011;66942;52.138;5.216;2024-03-23T06:52:43;16.0;;;4.61;;
64018;SDS011;66942;52.138;5.216;2024-03-23T06:54:19;12.9;;;4.91;;
64018;SDS011;66942;52.138;5.216;2024-03-23T06:55:55;14.5;;;4.7;;
64018;SDS011;66942;52.138;5.216;2024-03-23T06:59:08;14.2;;;4.7;;
64018;SDS011;66942;52.138;5.216;2024-03-23T07:00:44;11.7;;;4.61;;
64018;SDS011;66942;52.138;5.216;2024-03-23T07:02:20;11.4;;;4.3;;
64018;SDS011;66942;52.138;5.216;2024-03-23T07:05:32;9.81;;;3.7;;
64018;SDS011;66942;52.138;5.216;2024-03-23T07:07:08;13.6;;;4.8;;
64018;SDS011;66942;52.138;5.216;2024-03-23T07:08:44;11.2;;;4.2;;
64018;SDS011;66942;52.138;5.216;2024-03-23T07:10:20;14.3;;;4.61;;
64018;SDS011;66942;52.138;5.216;2024-03-23T07:13:32;11.8;;;4.7;;
64018;SDS011;66942;52.138;5.216;2024-03-23T07:15:09;15.4;;;5.11;;
64018;SDS011;66942;52.138;5.216;2024-03-23T07:16:45;10.6;;;4.91;;
64018;SDS011;66942;52.138;5.216;2024-03-23T07:19:59;15.6;;;5.3;;
64018;SDS011;66942;52.138;5.216;2024-03-23T07:21:35;12.7;;;4.7;;
64018;SDS011;66942;52.138;5.216;2024-03-23T07:23:11;9.31;;;3.8;;
64018;SDS011;66942;52.138;5.216;2024-03-23T07:26:23;9.4;;;4.2;;
64018;SDS011;66942;52.138;5.216;2024-03-23T07:27:59;14.2;;;4.7;;
64018;SDS011;66942;52.138;5.216;2024-03-23T07:29:36;11.2;;;4.7;;
64018;SDS011;66942;52.138;5.216;2024-03-23T07:32:49;11.8;;;4.1;;
64018;SDS011;66942;52.138;5.216;2024-03-23T07:34:25;11.8;;;4.1;;
64018;SDS011;66942;52.138;5.216;2024-03-23T07:36:01;7.9;;;3.8;;
64018;SDS011;66942;52.138;5.216;2024-03-23T07:37:38;12.0;;;4.3;;
64018;SDS011;66942;52.138;5.216;2024-03-23T07:40:50;15.4;;;4.2;;
64018;SDS011;66942;52.138;5.216;2024-03-23T07:42:26;12.7;;;4.41;;
64018;SDS011;66942;52.138;5.216;2024-03-23T07:44:05;12.4;;;4.5;;
64018;SDS011;66942;52.138;5.216;2024-03-23T07:47:17;13.4;;;3.5;;
64018;SDS011;66942;52.138;5.216;2024-03-23T07:48:53;9.6;;;3.9;;
64018;SDS011;66942;52.138;5.216;2024-03-23T07:50:29;9.81;;;3.7;;
64018;SDS011;66942;52.138;5.216;2024-03-23T07:53:42;11.3;;;3.2;;
64018;SDS011;66942;52.138;5.216;2024-03-23T07:55:19;11.3;;;3.7;;
64018;SDS011;66942;52.138;5.216;2024-03-23T07:56:55;8.5;;;3.3;;
64018;SDS011;66942;52.138;5.216;2024-03-23T07:58:32;9.31;;;3.4;;
64018;SDS011;66942;52.138;5.216;2024-03-23T08:01:46;9.9;;;3.7;;
64018;SDS011;66942;52.138;5.216;2024-03-23T08:03:22;10.6;;;3.5;;
64018;SDS011;66942;52.138;5.216;2024-03-23T08:04:58;9.71;;;3.8;;
64018;SDS011;66942;52.138;5.216;2024-03-23T08:08:10;10.5;;;3.2;;
64018;SDS011;66942;52.138;5.216;2024-03-23T08:09:46;12.0;;;3.6;;
64018;SDS011;66942;52.138;5.216;2024-03-23T08:11:22;10.1;;;3.4;;
64018;SDS011;66942;52.138;5.216;2024-03-23T08:14:35;10.7;;;3.3;;
64018;SDS011;66942;52.138;5.216;2024-03-23T08:16:12;9.81;;;3.5;;
64018;SDS011;66942;52.138;5.216;2024-03-23T08:17:48;9.71;;;3.7;;
64018;SDS011;66942;52.138;5.216;2024-03-23T08:19:25;11.6;;;3.5;;
64018;SDS011;66942;52.138;5.216;2024-03-23T08:22:39;8.2;;;3.3;;
64018;SDS011;66942;52.138;5.216;2024-03-23T08:24:15;9.9;;;3.1;;
64018;SDS011;66942;52.138;5.216;2024-03-23T08:25:51;8.9;;;3.2;;
64018;SDS011;66942;52.138;5.216;2024-03-23T08:29:04;9.6;;;3.2;;
64018;SDS011;66942;52.138;5.216;2024-03-23T08:30:40;7.0;;;2.9;;
64018;SDS011;66942;52.138;5.216;2024-03-23T08:32:17;9.6;;;2.9;;
64018;SDS011;66942;52.138;5.216;2024-03-23T08:35:29;9.1;;;2.9;;
64018;SDS011;66942;52.138;5.216;2024-03-23T08:37:05;9.1;;;2.9;;
64018;SDS011;66942;52.138;5.216;2024-03-23T08:38:41;9.31;;;3.7;;
64018;SDS011;66942;52.138;5.216;2024-03-23T08:41:53;9.81;;;3.4;;
64018;SDS011;66942;52.138;5.216;2024-03-23T08:43:30;13.6;;;4.2;;
64018;SDS011;66942;52.138;5.216;2024-03-23T08:45:08;9.1;;;3.0;;
64018;SDS011;66942;52.138;5.216;2024-03-23T08:46:44;10.21;;;3.5;;
64018;SDS011;66942;52.138;5.216;2024-03-23T08:49:56;11.9;;;3.0;;
64018;SDS011;66942;52.138;5.216;2024-03-23T08:51:32;7.4;;;2.8;;
64018;SDS011;66942;52.138;5.216;2024-03-23T08:53:08;9.81;;;2.9;;
64018;SDS011;66942;52.138;5.216;2024-03-23T08:56:20;7.4;;;2.9;;
64018;SDS011;66942;52.138;5.216;2024-03-23T08:57:56;8.81;;;3.2;;
64018;SDS011;66942;52.138;5.216;2024-03-23T08:59:32;9.6;;;3.8;;
64018;SDS011;66942;52.138;5.216;2024-03-23T09:02:47;6.1;;;2.5;;
64018;SDS011;66942;52.138;5.216;2024-03-23T09:04:23;8.2;;;3.0;;
64018;SDS011;66942;52.138;5.216;2024-03-23T09:05:59;7.6;;;2.4;;
64018;SDS011;66942;52.138;5.216;2024-03-23T09:07:35;9.9;;;2.9;;
64018;SDS011;66942;52.138;5.216;2024-03-23T09:10:47;7.5;;;2.7;;
64018;SDS011;66942;52.138;5.216;2024-03-23T09:12:24;7.9;;;2.8;;
64018;SDS011;66942;52.138;5.216;2024-03-23T09:14:01;10.6;;;2.9;;
64018;SDS011;66942;52.138;5.216;2024-03-23T09:17:22;10.1;;;3.1;;
64018;SDS011;66942;52.138;5.216;2024-03-23T09:18:59;6.9;;;2.6;;
64018;SDS011;66942;52.138;5.216;2024-03-23T09:20:35;7.0;;;2.31;;
64018;SDS011;66942;52.138;5.216;2024-03-23T09:22:11;6.7;;;2.6;;
64018;SDS011;66942;52.138;5.216;2024-03-23T09:25:23;9.4;;;2.6;;
64018;SDS011;66942;52.138;5.216;2024-03-23T09:26:59;7.9;;;3.1;;
64018;SDS011;66942;52.138;5.216;2024-03-23T09:28:35;8.31;;;2.9;;
64018;SDS011;66942;52.138;5.216;2024-03-23T09:31:49;13.0;;;3.7;;
64018;SDS011;66942;52.138;5.216;2024-03-23T09:33:26;10.3;;;3.6;;
64018;SDS011;66942;52.138;5.216;2024-03-23T09:35:02;11.3;;;3.2;;
64018;SDS011;66942;52.138;5.216;2024-03-23T09:38:15;8.9;;;3.5;;
64018;SDS011;66942;52.138;5.216;2024-03-23T09:39:51;10.4;;;3.7;;
64018;SDS011;66942;52.138;5.216;2024-03-23T09:41:27;8.81;;;3.2;;
64018;SDS011;66942;52.138;5.216;2024-03-23T09:44:42;9.71;;;3.4;;
64018;SDS011;66942;52.138;5.216;2024-03-23T09:46:19;11.1;;;3.6;;
64018;SDS011;66942;52.138;5.216;2024-03-23T09:47:56;9.31;;;3.8;;
64018;SDS011;66942;52.138;5.216;2024-03-23T09:49:34;10.21;;;3.2;;
64018;SDS011;66942;52.138;5.216;2024-03-23T09:52:47;10.6;;;3.7;;
64018;SDS011;66942;52.138;5.216;2024-03-23T09:54:23;12.6;;;4.0;;
64018;SDS011;66942;52.138;5.216;2024-03-23T09:56:00;8.5;;;3.3;;
64018;SDS011;66942;52.138;5.216;2024-03-23T09:59:12;10.3;;;3.7;;
64018;SDS011;66942;52.138;5.216;2024-03-23T10:00:48;9.81;;;3.5;;
64018;SDS011;66942;52.138;5.216;2024-03-23T10:02:24;9.4;;;3.6;;
64018;SDS011;66942;52.138;5.216;2024-03-23T10:04:02;9.6;;;3.6;;
64018;SDS011;66942;52.138;5.216;2024-03-23T10:07:15;10.21;;;3.8;;
64018;SDS011;66942;52.138;5.216;2024-03-23T10:08:55;8.9;;;3.2;;
64018;SDS011;66942;52.138;5.216;2024-03-23T10:10:31;8.71;;;3.5;;
64018;SDS011;66942;52.138;5.216;2024-03-23T10:13:45;9.4;;;2.6;;
64018;SDS011;66942;52.138;5.216;2024-03-23T10:15:23;10.1;;;3.6;;
64018;SDS011;66942;52.138;5.216;2024-03-23T10:17:11;13.2;;;3.3;;
64018;SDS011;66942;52.138;5.216;2024-03-23T10:18:48;9.0;;;3.0;;
64018;SDS011;66942;52.138;5.216;2024-03-23T10:22:02;8.1;;;3.2;;
64018;SDS011;66942;52.138;5.216;2024-03-23T10:23:38;7.5;;;3.0;;
64018;SDS011;66942;52.138;5.216;2024-03-23T10:25:16;9.21;;;2.9;;
64018;SDS011;66942;52.138;5.216;2024-03-23T10:28:32;7.8;;;3.1;;
64018;SDS011;66942;52.138;5.216;2024-03-23T10:30:09;8.6;;;3.1;;
64018;SDS011;66942;52.138;5.216;2024-03-23T10:31:46;7.1;;;2.31;;
64018;SDS011;66942;52.138;5.216;2024-03-23T10:33:22;7.2;;;3.0;;
64018;SDS011;66942;52.138;5.216;2024-03-23T10:36:51;8.4;;;2.9;;
64018;SDS011;66942;52.138;5.216;2024-03-23T10:38:28;9.0;;;2.8;;
64018;SDS011;66942;52.138;5.216;2024-03-23T10:40:06;7.3;;;2.7;;
64018;SDS011;66942;52.138;5.216;2024-03-23T10:41:45;10.6;;;2.9;;
64018;SDS011;66942;52.138;5.216;2024-03-23T10:44:57;10.7;;;2.6;;
64018;SDS011;66942;52.138;5.216;2024-03-23T10:46:34;8.31;;;2.7;;
64018;SDS011;66942;52.138;5.216;2024-03-23T10:48:10;8.31;;;2.7;;
64018;SDS011;66942;52.138;5.216;2024-03-23T10:51:22;8.71;;;2.8;;
64018;SDS011;66942;52.138;5.216;2024-03-23T10:52:58;6.6;;;2.5;;
64018;SDS011;66942;52.138;5.216;2024-03-23T10:54:35;7.7;;;2.5;;
64018;SDS011;66942;52.138;5.216;2024-03-23T10:57:51;7.8;;;2.6;;
64018;SDS011;66942;52.138;5.216;2024-03-23T10:59:31;8.4;;;3.0;;
64018;SDS011;66942;52.138;5.216;2024-03-23T11:01:10;7.3;;;2.5;;
64018;SDS011;66942;52.138;5.216;2024-03-23T11:02:47;11.5;;;2.9;;
64018;SDS011;66942;52.138;5.216;2024-03-23T11:06:08;7.7;;;3.0;;
64018;SDS011;66942;52.138;5.216;2024-03-23T11:07:49;7.9;;;2.8;;
64018;SDS011;66942;52.138;5.216;2024-03-23T11:09:45;9.1;;;3.2;;
64018;SDS011;66942;52.138;5.216;2024-03-23T11:11:22;8.1;;;2.9;;
64018;SDS011;66942;52.138;5.216;2024-03-23T11:14:59;10.21;;;2.9;;
64018;SDS011;66942;52.138;5.216;2024-03-23T11:16:38;8.1;;;2.9;;
64018;SDS011;66942;52.138;5.216;2024-03-23T11:18:19;10.0;;;3.2;;
64018;SDS011;66942;52.138;5.216;2024-03-23T11:19:57;10.0;;;3.6;;
64018;SDS011;66942;52.138;5.216;2024-03-23T11:21:54;7.6;;;2.6;;
64018;SDS011;66942;52.138;5.216;2024-03-23T11:23:30;9.71;;;3.4;;
64018;SDS011;66942;52.138;5.216;2024-03-23T11:26:55;10.7;;;3.6;;
64018;SDS011;66942;52.138;5.216;2024-03-23T11:28:32;8.1;;;3.1;;
64018;SDS011;66942;52.138;5.216;2024-03-23T11:30:10;7.0;;;2.7;;
64018;SDS011;66942;52.138;5.216;2024-03-23T11:33:27;8.31;;;3.0;;
64018;SDS011;66942;52.138;5.216;2024-03-23T11:35:03;9.81;;;3.1;;
64018;SDS011;66942;52.138;5.216;2024-03-23T11:36:40;7.1;;;3.2;;
64018;SDS011;66942;52.138;5.216;2024-03-23T11:38:17;6.7;;;3.0;;
64018;SDS011;66942;52.138;5.216;2024-03-23T11:41:29;8.6;;;3.3;;
64018;SDS011;66942;52.138;5.216;2024-03-23T11:43:06;10.1;;;3.2;;
64018;SDS011;66942;52.138;5.216;2024-03-23T11:44:44;6.4;;;2.9;;
64018;SDS011;66942;52.138;5.216;2024-03-23T11:48:01;7.9;;;3.0;;
64018;SDS011;66942;52.138;5.216;2024-03-23T11:49:41;7.3;;;3.1;;
64018;SDS011;66942;52.138;5.216;2024-03-23T11:51:17;7.1;;;3.1;;
64018;SDS011;66942;52.138;5.216;2024-03-23T11:52:53;8.2;;;2.9;;
64018;SDS011;66942;52.138;5.216;2024-03-23T11:56:18;8.81;;;3.1;;
64018;SDS011;66942;52.138;5.216;2024-03-23T11:57:54;8.4;;;3.1;;
64018;SDS011;66942;52.138;5.216;2024-03-23T11:59:31;8.81;;;3.3;;
64018;SDS011;66942;52.138;5.216;2024-03-23T12:01:10;8.81;;;2.8;;
64018;SDS011;66942;52.138;5.216;2024-03-23T12:04:24;5.8;;;3.0;;
64018;SDS011;66942;52.138;5.216;2024-03-23T12:06:01;8.1;;;3.2;;
64018;SDS011;66942;52.138;5.216;2024-03-23T12:07:40;8.0;;;2.9;;
64018;SDS011;66942;52.138;5.216;2024-03-23T12:10:53;8.81;;;3.0;;
64018;SDS011;66942;52.138;5.216;2024-03-23T12:12:40;6.4;;;2.8;;
64018;SDS011;66942;52.138;5.216;2024-03-23T12:14:16;10.1;;;2.8;;
64018;SDS011;66942;52.138;5.216;2024-03-23T12:15:53;8.0;;;2.7;;
64018;SDS011;66942;52.138;5.216;2024-03-23T12:19:05;7.6;;;3.3;;
64018;SDS011;66942;52.138;5.216;2024-03-23T12:20:41;5.11;;;2.5;;
64018;SDS011;66942;52.138;5.216;2024-03-23T12:22:20;5.6;;;2.31;;
64018;SDS011;66942;52.138;5.216;2024-03-23T12:25:32;6.9;;;2.7;;
64018;SDS011;66942;52.138;5.216;2024-03-23T12:27:08;7.3;;;2.7;;
64018;SDS011;66942;52.138;5.216;2024-03-23T12:28:44;7.3;;;2.8;;
64018;SDS011;66942;52.138;5.216;2024-03-23T12:31:58;6.8;;;3.2;;
64018;SDS011;66942;52.138;5.216;2024-03-23T12:33:36;7.9;;;2.9;;
64018;SDS011;66942;52.138;5.216;2024-03-23T12:35:12;8.81;;;2.9;;
64018;SDS011;66942;52.138;5.216;2024-03-23T12:36:48;7.5;;;2.9;;
64018;SDS011;66942;52.138;5.216;2024-03-23T12:40:00;8.0;;;2.7;;
64018;SDS011;66942;52.138;5.216;2024-03-23T12:41:36;8.0;;;2.4;;
64018;SDS011;66942;52.138;5.216;2024-03-23T12:43:12;10.1;;;2.9;;
64018;SDS011;66942;52.138;5.216;2024-03-23T12:46:24;8.81;;;3.0;;
64018;SDS011;66942;52.138;5.216;2024-03-23T12:48:01;10.8;;;2.7;;
64018;SDS011;66942;52.138;5.216;2024-03-23T12:49:37;6.0;;;2.4;;
64018;SDS011;66942;52.138;5.216;2024-03-23T12:52:49;9.0;;;2.7;;
64018;SDS011;66942;52.138;5.216;2024-03-23T12:54:25;8.71;;;2.6;;
64018;SDS011;66942;52.138;5.216;2024-03-23T12:56:01;8.71;;;2.9;;
64018;SDS011;66942;52.138;5.216;2024-03-23T12:57:37;9.9;;;2.8;;
64018;SDS011;66942;52.138;5.216;2024-03-23T13:00:50;8.81;;;3.3;;
64018;SDS011;66942;52.138;5.216;2024-03-23T13:02:26;7.4;;;2.9;;
64018;SDS011;66942;52.138;5.216;2024-03-23T13:04:03;7.3;;;2.8;;
64018;SDS011;66942;52.138;5.216;2024-03-23T13:07:15;7.7;;;2.7;;
64018;SDS011;66942;52.138;5.216;2024-03-23T13:08:51;7.7;;;2.8;;
64018;SDS011;66942;52.138;5.216;2024-03-23T13:10:27;8.9;;;2.8;;
64018;SDS011;66942;52.138;5.216;2024-03-23T13:13:40;8.71;;;2.9;;
64018;SDS011;66942;52.138;5.216;2024-03-23T13:15:16;9.4;;;2.5;;
64018;SDS011;66942;52.138;5.216;2024-03-23T13:16:52;5.4;;;2.0;;
64018;SDS011;66942;52.138;5.216;2024-03-23T13:20:05;3.4;;;1.4;;
64018;SDS011;66942;52.138;5.216;2024-03-23T13:21:42;3.9;;;1.0;;
64018;SDS011;66942;52.138;5.216;2024-03-23T13:23:18;2.5;;;0.8;;
64018;SDS011;66942;52.138;5.216;2024-03-23T13:24:54;4.91;;;1.11;;
64018;SDS011;66942;52.138;5.216;2024-03-23T13:28:06;4.0;;;1.0;;
64018;SDS011;66942;52.138;5.216;2024-03-23T13:29:42;3.0;;;1.11;;
64018;SDS011;66942;52.138;5.216;2024-03-23T13:31:18;2.7;;;0.9;;
64018;SDS011;66942;52.138;5.216;2024-03-23T13:34:30;5.5;;;1.7;;
64018;SDS011;66942;52.138;5.216;2024-03-23T13:36:07;3.7;;;1.9;;
64018;SDS011;66942;52.138;5.216;2024-03-23T13:37:44;5.2;;;1.7;;
64018;SDS011;66942;52.138;5.216;2024-03-23T13:40:57;5.9;;;2.0;;